createdAt,value
2023-05-03T04:04:55.899Z,9.40
2023-05-03T04:16:58.243Z,9.30
2023-05-03T04:19:27.780Z,9.30
2023-05-03T04:31:50.277Z,9.10
2023-05-03T04:43:56.103Z,9.10
2023-05-03T07:56:24.289Z,20.00
2023-05-03T08:02:03.188Z,20.50
2023-05-03T08:04:30.889Z,21.00
2023-05-03T08:07:02.308Z,21.40
2023-05-03T08:09:30.273Z,21.70
2023-05-03T08:11:57.599Z,22.20
2023-05-03T08:14:24.968Z,22.50
2023-05-03T08:16:52.438Z,22.30
2023-05-03T08:19:20.064Z,22.90
2023-05-03T08:21:47.712Z,23.30
2023-05-03T08:24:16.113Z,23.30
2023-05-03T08:26:45.380Z,23.20
2023-05-03T08:29:12.631Z,23.30
2023-05-03T08:31:41.107Z,23.50
2023-05-03T08:34:10.659Z,23.50
2023-05-03T08:36:40.790Z,23.50
2023-05-03T08:39:10.259Z,24.30
2023-05-03T08:41:39.937Z,23.90
2023-05-03T08:44:11.334Z,24.10
2023-05-03T08:46:38.951Z,24.40
2023-05-03T08:49:07.545Z,24.90
2023-05-03T08:51:38.817Z,24.70
2023-05-03T08:54:06.439Z,24.70
2023-05-03T08:56:41.565Z,25.00
2023-05-03T08:59:12.893Z,25.40
2023-05-03T09:01:41.626Z,26.20
2023-05-03T09:04:10.461Z,26.10
2023-05-03T09:06:38.699Z,26.20
2023-05-03T09:09:08.408Z,26.30
2023-05-03T09:11:38.282Z,26.40
2023-05-03T09:14:17.001Z,26.80
2023-05-03T09:16:46.696Z,26.40
2023-05-03T09:19:15.401Z,26.50
2023-05-03T09:21:49.314Z,26.40
2023-05-03T09:24:17.573Z,26.30
2023-05-03T09:26:47.011Z,26.80
2023-05-03T09:29:40.708Z,26.40
2023-05-03T09:32:08.515Z,26.20
2023-05-03T09:34:37.091Z,26.20
2023-05-03T09:37:04.855Z,25.80
2023-05-03T09:39:32.446Z,25.70
2023-05-03T09:42:17.003Z,25.70
2023-05-03T09:44:48.828Z,25.50
2023-05-03T09:47:17.037Z,25.50
2023-05-03T09:49:44.774Z,25.30
2023-05-03T09:52:13.250Z,25.00
2023-05-03T09:54:42.625Z,24.70
2023-05-03T09:57:12.422Z,24.40
2023-05-03T09:59:39.935Z,24.00
2023-05-03T10:02:08.884Z,23.70
2023-05-03T10:04:43.586Z,23.90
2023-05-03T10:07:15.178Z,22.80
2023-05-03T10:09:48.260Z,22.90
2023-05-03T10:12:25.791Z,22.80
2023-05-03T10:14:55.406Z,23.00
2023-05-03T10:17:47.367Z,22.80
2023-05-03T10:23:35.190Z,22.10
2023-05-03T10:57:00.856Z,20.80
2023-05-03T11:48:22.511Z,20.60
2023-05-03T11:50:55.992Z,20.60
2023-05-03T13:16:46.159Z,20.20
2023-05-03T13:32:33.370Z,20.40
2023-05-03T13:35:01.491Z,20.40
2023-05-03T13:37:30.679Z,20.80
2023-05-03T13:39:59.077Z,20.40
2023-05-03T13:42:26.927Z,20.40
2023-05-03T13:44:54.366Z,20.90
2023-05-03T13:47:21.865Z,20.50
2023-05-03T13:49:49.452Z,20.90
2023-05-03T13:52:16.927Z,20.90
2023-05-03T14:00:57.699Z,20.60
2023-05-03T14:03:25.495Z,20.70
2023-05-03T14:09:04.552Z,20.70
2023-05-03T14:20:34.527Z,20.80
2023-05-03T14:23:04.058Z,20.70
2023-05-03T14:25:37.668Z,20.80
2023-05-03T14:28:07.945Z,20.80
2023-05-03T14:30:36.450Z,20.90
2023-05-03T14:33:03.929Z,20.90
2023-05-03T15:03:54.577Z,21.00
2023-05-03T15:11:10.803Z,21.10
2023-05-03T15:13:38.742Z,21.50
2023-05-03T15:16:06.693Z,21.10
2023-05-03T15:18:34.076Z,21.10
2023-05-03T15:21:02.897Z,21.10
2023-05-03T15:23:30.226Z,21.10
2023-05-03T15:25:58.130Z,21.20
2023-05-03T15:28:25.785Z,21.20
2023-05-03T15:30:53.148Z,21.60
2023-05-03T15:33:20.906Z,21.70
2023-05-03T15:35:48.362Z,21.20
2023-05-03T15:38:17.726Z,21.30
2023-05-03T15:40:44.993Z,21.30
2023-05-03T15:43:12.516Z,21.30
2023-05-03T15:45:39.875Z,21.80
2023-05-03T15:48:09.651Z,21.30
2023-05-03T15:50:37.652Z,21.30
2023-05-03T15:53:05.012Z,21.40
2023-05-03T15:55:35.211Z,21.30
2023-05-03T15:58:07.426Z,21.40
2023-05-03T16:00:35.372Z,21.40
2023-05-03T16:03:03.320Z,21.40
2023-05-03T16:17:31.591Z,21.40
2023-05-03T16:19:59.036Z,21.40
2023-05-03T16:22:27.567Z,21.80
2023-05-03T16:24:55.223Z,21.80
2023-05-03T16:27:22.578Z,21.40
2023-05-03T16:29:49.866Z,22.10
2023-05-03T16:32:17.272Z,22.00
2023-05-03T16:34:44.576Z,21.50
2023-05-03T16:37:12.046Z,22.10
2023-05-03T16:39:40.138Z,22.10
2023-05-03T16:42:07.999Z,21.50
2023-05-03T16:44:36.920Z,21.60
2023-05-03T16:47:05.753Z,21.60
2023-05-03T16:49:34.289Z,21.60
2023-05-03T16:52:02.197Z,21.90
2023-05-03T16:54:29.552Z,21.60
2023-05-03T16:56:56.832Z,21.70
2023-05-03T16:59:24.478Z,21.60
2023-05-03T17:01:52.095Z,21.60
2023-05-03T17:04:19.624Z,21.60
2023-05-03T17:06:47.163Z,21.60
2023-05-03T17:09:16.689Z,21.70
2023-05-03T17:11:44.041Z,21.60
2023-05-03T17:14:11.606Z,21.60
2023-05-03T17:16:44.505Z,21.60
2023-05-03T17:19:12.415Z,22.20
2023-05-03T17:21:39.738Z,21.60
2023-05-03T17:24:07.367Z,21.60
2023-05-03T17:26:35.425Z,21.60
2023-05-03T17:29:03.167Z,21.50
2023-05-03T17:31:30.475Z,21.50
2023-05-03T17:33:58.308Z,21.40
2023-05-03T17:36:25.792Z,21.40
2023-05-03T17:38:53.239Z,21.80
2023-05-03T17:41:21.478Z,22.00
2023-05-03T17:43:50.339Z,21.40
2023-05-03T17:46:20.132Z,21.00
2023-05-03T17:48:48.477Z,21.30
2023-05-03T17:51:15.969Z,21.30
2023-05-03T17:53:43.361Z,21.30
2023-05-03T17:56:14.966Z,21.90
2023-05-03T17:58:43.830Z,21.90
2023-05-03T18:01:13.442Z,21.20
2023-05-03T18:03:43.845Z,21.20
2023-05-03T18:06:13.206Z,21.10
2023-05-03T18:08:41.987Z,21.10
2023-05-03T18:11:10.326Z,21.10
2023-05-03T18:13:40.692Z,21.70
2023-05-03T18:16:08.875Z,21.00
2023-05-03T18:18:37.577Z,21.50
2023-05-03T18:21:05.922Z,21.00
2023-05-03T18:23:33.515Z,21.40
2023-05-03T18:26:00.956Z,21.30
2023-05-03T18:28:28.419Z,21.30
2023-05-03T18:30:56.261Z,21.10
2023-05-03T18:39:50.363Z,20.70
2023-05-03T18:42:20.146Z,21.10
2023-05-03T18:44:47.835Z,21.10
